Time;durP1;ratioP1;P1;durP2;ratioP2;P2;SDS_P1;SDS_P2;PMS_P1;PMS_P2;Temp;Humidity;BMP_temperature;BMP_pressure;BME280_temperature;BME280_humidity;BME280_pressure;Samples;Min_cycle;Max_cycle;Signal;HPM_P1;HPM_P2
2023/03/28 00:00:48;;;;;;;;;;;;;;;;;;7369644;19;1769;-66
2023/03/28 00:03:17;;;;;;;;;;;;;;;;;;7371172;19;1846;-66
2023/03/28 00:05:47;;;;;;;;;;;;;;;;;;7367059;19;1294;-66
2023/03/28 00:08:15;;;;;;;;;;;;;;;;;;7369899;19;1421;-66
2023/03/28 00:10:44;;;;;;;;;;;;;;;;;;7371333;19;1799;-66
2023/03/28 00:13:12;;;;;;;;;;;;;;;;;;7368500;19;1853;-66
2023/03/28 00:15:41;;;;;;;;;;;;;;;;;;7367386;19;1987;-66
2023/03/28 00:18:10;;;;;;;;;;;;;;;;;;7365208;19;865;-66
2023/03/28 00:20:38;;;;;;;;;;;;;;;;;;7370222;19;1733;-66
2023/03/28 00:23:06;;;;;;;;;;;;;;;;;;7368044;19;822;-66
2023/03/28 00:25:35;;;;;;;;;;;;;;;;;;7368032;19;1672;-66
2023/03/28 00:28:03;;;;;;;;;;;;;;;;;;7368328;19;1800;-66
2023/03/28 00:30:31;;;;;;;;;;;;;;;;;;7367955;19;1922;-66
2023/03/28 00:32:59;;;;;;;;;;;;;;;;;;7366248;19;839;-65
2023/03/28 00:35:27;;;;;;;;;;;;;;;;;;7366382;19;1799;-65
2023/03/28 00:37:57;;;;;;;;;;;;;;;;;;7367621;19;1873;-65
2023/03/28 00:40:25;;;;;;;;;;;;;;;;;;7367826;19;1569;-66
2023/03/28 00:42:54;;;;;;;;;;;;;;;;;;7368588;19;1818;-66
2023/03/28 00:45:22;;;;;;;;;;;;;;;;;;7367004;19;1833;-65
2023/03/28 00:47:51;;;;;;;;;;;;;;;;;;7366000;19;787;-66
2023/03/28 00:50:20;;;;;;;;;;;;;;;;;;7367213;19;1845;-65
2023/03/28 00:52:48;;;;;;;;;;;;;;;;;;7364980;19;856;-65
2023/03/28 00:55:17;;;;;;;;;;;;;;;;;;7363013;19;1857;-65
2023/03/28 00:57:45;;;;;;;;;;;;;;;;;;7364153;19;838;-65
2023/03/28 01:00:17;;;;;;;;;;;;;;;;;;7367518;19;1798;-65
2023/03/28 01:02:49;;;;;;;;;;;;;;;;;;7364627;19;770;-66
2023/03/28 01:05:18;;;;;;;;;;;;;;;;;;7365028;19;1612;-65
2023/03/28 01:07:46;;;;;;;;;;;;;;;;;;7367138;19;1750;-66
2023/03/28 01:10:19;;;;;;;;;;;;;;;;;;7367565;19;1843;-66
2023/03/28 01:12:47;;;;;;;;;;;;;;;;;;7370237;19;1654;-67
2023/03/28 01:15:20;;;;;;;;;;;;;;;;;;7362608;19;1875;-67
2023/03/28 01:17:56;;;;;;;;;;;;;;;;;;7363744;19;782;-67
2023/03/28 01:20:25;;;;;;;;;;;;;;;;;;7366184;19;1813;-66
2023/03/28 01:22:53;;;;;;;;;;;;;;;;;;7366082;19;1839;-67
2023/03/28 01:25:21;;;;;;;;;;;;;;;;;;7365448;19;1706;-67
2023/03/28 01:27:50;;;;;;;;;;;;;;;;;;7365229;19;865;-67
2023/03/28 01:30:28;;;;;;;;;;;;;;;;;;7365686;19;1806;-67
2023/03/28 01:33:15;;;;;;;;;;;;;;;;;;7369304;19;1867;-68
2023/03/28 01:35:43;;;;;;;;;;;;;;;;;;7364400;19;2051;-67
2023/03/28 01:38:11;;;;;;;;;;;;;;;;;;7364089;19;1824;-67
2023/03/28 01:40:40;;;;;;;;;;;;;;;;;;7366065;19;1694;-66
2023/03/28 01:43:10;;;;;;;;;;;;;;;;;;7363642;19;708;-66
2023/03/28 01:45:38;;;;;;;;;;;;;;;;;;7364663;19;1776;-66
2023/03/28 01:48:07;;;;;;;;;;;;;;;;;;7365487;19;1818;-66
2023/03/28 01:50:35;;;;;;;;;;;;;;;;;;7366096;19;1799;-66
2023/03/28 01:53:04;;;;;;;;;;;;;;;;;;7364988;19;1838;-66
2023/03/28 01:55:33;;;;;;;;;;;;;;;;;;7363574;19;1853;-67
2023/03/28 01:58:02;;;;;;;;;;;;;;;;;;7362598;19;757;-67
2023/03/28 02:00:42;;;;;;;;;;;;;;;;;;7363298;19;782;-65
2023/03/28 02:03:10;;;;;;;;;;;;;;;;;;7363998;19;806;-66
2023/03/28 02:05:44;;;;;;;;;;;;;;;;;;7359550;19;1321;-66
2023/03/28 02:08:15;;;;;;;;;;;;;;;;;;7362421;19;797;-66
2023/03/28 02:10:48;;;;;;;;;;;;;;;;;;7362781;19;707;-66
2023/03/28 02:13:35;;;;;;;;;;;;;;;;;;7364020;19;1829;-66
2023/03/28 02:16:42;;;;;;;;;;;;;;;;;;7359801;19;1308;-66
2023/03/28 02:19:43;;;;;;;;;;;;;;;;;;7360995;19;1224;-66
2023/03/28 02:22:23;;;;;;;;;;;;;;;;;;7362236;19;913;-66
2023/03/28 02:25:01;;;;;;;;;;;;;;;;;;7364778;19;1330;-66
2023/03/28 02:27:48;;;;;;;;;;;;;;;;;;7362916;19;766;-66
2023/03/28 02:30:31;;;;;;;;;;;;;;;;;;7363168;19;919;-66
2023/03/28 02:32:59;;;;;;;;;;;;;;;;;;7361949;19;786;-66
2023/03/28 02:35:27;;;;;;;;;;;;;;;;;;7362907;19;1854;-66
2023/03/28 02:37:55;;;;;;;;;;;;;;;;;;7361639;19;800;-66
2023/03/28 02:40:24;;;;;;;;;;;;;;;;;;7361685;19;846;-66
2023/03/28 02:42:52;;;;;;;;;;;;;;;;;;7362851;19;866;-66
2023/03/28 02:45:20;;;;;;;;;;;;;;;;;;7363848;19;1219;-66
2023/03/28 02:47:48;;;;;;;;;;;;;;;;;;7365380;19;837;-66
2023/03/28 02:50:17;;;;;;;;;;;;;;;;;;7365948;19;1693;-65
2023/03/28 02:52:50;;;;;;;;;;;;;;;;;;7363882;19;825;-66
2023/03/28 02:55:19;;;;;;;;;;;;;;;;;;7361645;19;1852;-66
2023/03/28 02:58:01;;;;;;;;;;;;;;;;;;7362005;19;808;-66
2023/03/28 03:00:29;;;;;;;;;;;;;;;;;;7362888;19;783;-67
2023/03/28 03:02:57;;;;;;;;;;;;;;;;;;7361344;19;861;-67
2023/03/28 03:05:26;;;;;;;;;;;;;;;;;;7362045;19;1835;-67
2023/03/28 03:07:54;;;;;;;;;;;;;;;;;;7366209;19;1906;-67
2023/03/28 03:10:24;;;;;;;;;;;;;;;;;;7360631;19;967;-67
2023/03/28 03:12:53;;;;;;;;;;;;;;;;;;7361039;19;842;-67
2023/03/28 03:15:21;;;;;;;;;;;;;;;;;;7359335;19;1855;-66
2023/03/28 03:17:54;;;;;;;;;;;;;;;;;;7362983;19;760;-67
2023/03/28 03:20:32;;;;;;;;;;;;;;;;;;7367804;19;767;-67
2023/03/28 03:23:00;;;;;;;;;;;;;;;;;;7373263;19;1801;-67
2023/03/28 03:25:30;;;;;;;;;;;;;;;;;;7371774;19;1417;-67
2023/03/28 03:28:17;;;;;;;;;;;;;;;;;;7368698;19;758;-66
2023/03/28 03:30:46;;;;;;;;;;;;;;;;;;7367071;19;853;-67
2023/03/28 03:33:50;;;;;;;;;;;;;;;;;;7365008;19;1173;-67
2023/03/28 03:36:21;;;;;;;;;;;;;;;;;;7365115;19;1847;-67
2023/03/28 03:38:49;;;;;;;;;;;;;;;;;;7370788;19;1863;-67
2023/03/28 03:41:22;;;;;;;;;;;;;;;;;;7367478;19;1091;-67
2023/03/28 03:43:50;;;;;;;;;;;;;;;;;;7368298;19;819;-66
2023/03/28 03:46:18;;;;;;;;;;;;;;;;;;7369327;19;1634;-67
2023/03/28 03:48:48;;;;;;;;;;;;;;;;;;7366395;19;728;-67
2023/03/28 03:51:17;;;;;;;;;;;;;;;;;;7366489;19;815;-67
2023/03/28 03:53:45;;;;;;;;;;;;;;;;;;7370122;19;1618;-67
2023/03/28 03:56:16;;;;;;;;;;;;;;;;;;7366649;19;1849;-67
2023/03/28 03:58:56;;;;;;;;;;;;;;;;;;7367711;19;1981;-67
2023/03/28 04:01:29;;;;;;;;;;;;;;;;;;7370605;19;1819;-67
2023/03/28 04:04:00;;;;;;;;;;;;;;;;;;7370112;19;1807;-66
2023/03/28 04:06:37;;;;;;;;;;;;;;;;;;7367949;19;2086;-67
2023/03/28 04:09:08;;;;;;;;;;;;;;;;;;7366553;19;1777;-66
2023/03/28 04:11:52;;;;;;;;;;;;;;;;;;7367927;19;1628;-66
2023/03/28 04:14:21;;;;;;;;;;;;;;;;;;7367926;19;1851;-67
2023/03/28 04:16:50;;;;;;;;;;;;;;;;;;7364347;19;1856;-67
2023/03/28 04:19:19;;;;;;;;;;;;;;;;;;7367557;19;1792;-66
2023/03/28 04:21:48;;;;;;;;;;;;;;;;;;7368614;19;1654;-66
2023/03/28 04:24:19;;;;;;;;;;;;;;;;;;7370105;19;1832;-67
2023/03/28 04:26:56;;;;;;;;;;;;;;;;;;7362201;19;1349;-67
2023/03/28 04:29:29;;;;;;;;;;;;;;;;;;7363141;19;736;-66
2023/03/28 04:32:13;;;;;;;;;;;;;;;;;;7366891;19;760;-66
2023/03/28 04:35:11;;;;;;;;;;;;;;;;;;7365415;19;1854;-66
2023/03/28 04:37:39;;;;;;;;;;;;;;;;;;7367965;19;2077;-66
2023/03/28 04:40:14;;;;;;;;;;;;;;;;;;7366035;19;789;-67
2023/03/28 04:42:47;;;;;;;;;;;;;;;;;;7366258;19;731;-64
2023/03/28 04:45:20;;;;;;;;;;;;;;;;;;7365300;19;1371;-66
2023/03/28 04:47:49;;;;;;;;;;;;;;;;;;7364619;19;749;-66
2023/03/28 04:50:19;;;;;;;;;;;;;;;;;;7367246;19;711;-66
2023/03/28 04:52:47;;;;;;;;;;;;;;;;;;7368408;19;1787;-66
2023/03/28 04:55:18;;;;;;;;;;;;;;;;;;7364850;19;1842;-67
2023/03/28 04:57:49;;;;;;;;;;;;;;;;;;7364866;19;851;-66
2023/03/28 05:00:21;;;;;;;;;;;;;;;;;;7365447;19;783;-66
2023/03/28 05:03:03;;;;;;;;;;;;;;;;;;7366967;19;782;-67
2023/03/28 05:05:34;;;;;;;;;;;;;;;;;;7364216;19;1368;-67
2023/03/28 05:08:05;;;;;;;;;;;;;;;;;;7365499;19;1847;-67
2023/03/28 05:10:35;;;;;;;;;;;;;;;;;;7365292;19;798;-67
2023/03/28 05:13:06;;;;;;;;;;;;;;;;;;7364374;19;799;-67
2023/03/28 05:15:42;;;;;;;;;;;;;;;;;;7364434;19;1857;-67
2023/03/28 05:18:29;;;;;;;;;;;;;;;;;;7365514;19;769;-66
2023/03/28 05:20:57;;;;;;;;;;;;;;;;;;7364213;19;778;-67
2023/03/28 05:23:25;;;;;;;;;;;;;;;;;;7368239;19;1835;-67
2023/03/28 05:25:54;;;;;;;;;;;;;;;;;;7360659;19;1415;-67
2023/03/28 05:28:23;;;;;;;;;;;;;;;;;;7362546;19;795;-66
2023/03/28 05:30:53;;;;;;;;;;;;;;;;;;7363139;19;910;-66
2023/03/28 05:33:21;;;;;;;;;;;;;;;;;;7364202;19;879;-67
2023/03/28 05:35:50;;;;;;;;;;;;;;;;;;7361380;19;1850;-67
2023/03/28 05:38:18;;;;;;;;;;;;;;;;;;7365408;19;1737;-67
2023/03/28 05:40:52;;;;;;;;;;;;;;;;;;7360677;19;778;-67
2023/03/28 05:43:20;;;;;;;;;;;;;;;;;;7364911;19;814;-67
2023/03/28 05:45:49;;;;;;;;;;;;;;;;;;7361081;19;1380;-67
2023/03/28 05:48:23;;;;;;;;;;;;;;;;;;7362081;19;781;-67
2023/03/28 05:50:51;;;;;;;;;;;;;;;;;;7362036;19;847;-66
2023/03/28 05:53:19;;;;;;;;;;;;;;;;;;7365448;19;1792;-66
2023/03/28 05:55:48;;;;;;;;;;;;;;;;;;7364374;19;1845;-67
2023/03/28 05:58:16;;;;;;;;;;;;;;;;;;7366625;19;2063;-66
2023/03/28 06:00:45;;;;;;;;;;;;;;;;;;7363175;19;799;-67
2023/03/28 06:03:14;;;;;;;;;;;;;;;;;;7363204;19;810;-67
2023/03/28 06:05:42;;;;;;;;;;;;;;;;;;7361935;19;1235;-67
2023/03/28 06:08:25;;;;;;;;;;;;;;;;;;7362011;19;741;-67
2023/03/28 06:10:54;;;;;;;;;;;;;;;;;;7363263;19;1784;-67
2023/03/28 06:13:27;;;;;;;;;;;;;;;;;;7365731;19;2050;-67
2023/03/28 06:15:56;;;;;;;;;;;;;;;;;;7360881;19;1863;-66
2023/03/28 06:18:31;;;;;;;;;;;;;;;;;;7362046;19;877;-66
2023/03/28 06:20:59;;;;;;;;;;;;;;;;;;7363805;19;767;-67
2023/03/28 06:23:28;;;;;;;;;;;;;;;;;;7362603;19;802;-66
2023/03/28 06:25:56;;;;;;;;;;;;;;;;;;7360548;19;1289;-67
2023/03/28 06:28:24;;;;;;;;;;;;;;;;;;7361691;19;894;-66
2023/03/28 06:31:10;;;;;;;;;;;;;;;;;;7362638;19;1433;-66
2023/03/28 06:33:40;;;;;;;;;;;;;;;;;;7364027;19;810;-66
2023/03/28 06:36:08;;;;;;;;;;;;;;;;;;7360592;19;1838;-66
2023/03/28 06:38:36;;;;;;;;;;;;;;;;;;7364073;19;2182;-67
2023/03/28 06:41:06;;;;;;;;;;;;;;;;;;7362169;19;802;-67
2023/03/28 06:43:35;;;;;;;;;;;;;;;;;;7363136;19;814;-67
2023/03/28 06:46:26;;;;;;;;;;;;;;;;;;7360694;19;1357;-66
2023/03/28 06:48:54;;;;;;;;;;;;;;;;;;7363179;19;821;-69
2023/03/28 06:51:25;;;;;;;;;;;;;;;;;;7377944;19;754;-67
2023/03/28 06:53:53;;;;;;;;;;;;;;;;;;7376515;19;873;-67
2023/03/28 06:56:28;;;;;;;;;;;;;;;;;;7369177;19;1850;-66
2023/03/28 06:58:58;;;;;;;;;;;;;;;;;;7369491;19;838;-67
2023/03/28 07:01:28;;;;;;;;;;;;;;;;;;7369917;19;845;-66
2023/03/28 07:04:16;;;;;;;;;;;;;;;;;;7368584;19;760;-67
2023/03/28 07:06:48;;;;;;;;;;;;;;;;;;7367831;19;1865;-67
2023/03/28 07:09:16;;;;;;;;;;;;;;;;;;7369068;19;863;-67
2023/03/28 07:11:52;;;;;;;;;;;;;;;;;;7368432;19;828;-66
2023/03/28 07:14:21;;;;;;;;;;;;;;;;;;7367136;19;838;-66
2023/03/28 07:16:49;;;;;;;;;;;;;;;;;;7365737;19;1845;-67
2023/03/28 07:19:17;;;;;;;;;;;;;;;;;;7368977;19;815;-65
2023/03/28 07:21:48;;;;;;;;;;;;;;;;;;7368895;19;807;-67
2023/03/28 07:24:16;;;;;;;;;;;;;;;;;;7367607;19;803;-67
2023/03/28 07:26:56;;;;;;;;;;;;;;;;;;7365109;19;1306;-67
2023/03/28 07:29:25;;;;;;;;;;;;;;;;;;7368636;19;802;-68
2023/03/28 07:31:53;;;;;;;;;;;;;;;;;;7371080;19;839;-67
2023/03/28 07:34:22;;;;;;;;;;;;;;;;;;7370979;19;828;-67
2023/03/28 07:36:50;;;;;;;;;;;;;;;;;;7368552;19;1877;-66
2023/03/28 07:39:29;;;;;;;;;;;;;;;;;;7371149;19;1663;-67
2023/03/28 07:41:59;;;;;;;;;;;;;;;;;;7369062;19;827;-69
2023/03/28 07:44:27;;;;;;;;;;;;;;;;;;7369364;19;833;-67
2023/03/28 07:46:55;;;;;;;;;;;;;;;;;;7371076;19;1825;-67
2023/03/28 07:49:24;;;;;;;;;;;;;;;;;;7368165;19;866;-68
2023/03/28 07:51:52;;;;;;;;;;;;;;;;;;7368337;19;823;-67
2023/03/28 07:54:20;;;;;;;;;;;;;;;;;;7368306;19;854;-69
2023/03/28 07:56:49;;;;;;;;;;;;;;;;;;7365404;19;1853;-68
2023/03/28 07:59:40;;;;;;;;;;;;;;;;;;7367290;19;799;-68
2023/03/28 08:02:08;;;;;;;;;;;;;;;;;;7371170;19;2119;-68
2023/03/28 08:04:36;;;;;;;;;;;;;;;;;;7365461;19;828;-68
2023/03/28 08:07:09;;;;;;;;;;;;;;;;;;7365484;19;1391;-67
2023/03/28 08:09:38;;;;;;;;;;;;;;;;;;7368590;19;2080;-68
2023/03/28 08:12:14;;;;;;;;;;;;;;;;;;7367818;19;775;-67
2023/03/28 08:14:44;;;;;;;;;;;;;;;;;;7368153;19;878;-69
2023/03/28 08:17:12;;;;;;;;;;;;;;;;;;7365397;19;1853;-68
2023/03/28 08:19:40;;;;;;;;;;;;;;;;;;7366582;19;761;-67
2023/03/28 08:22:15;;;;;;;;;;;;;;;;;;7370116;19;1572;-66
2023/03/28 08:24:52;;;;;;;;;;;;;;;;;;7366496;19;689;-66
2023/03/28 08:27:23;;;;;;;;;;;;;;;;;;7363837;19;1404;-66
2023/03/28 08:29:55;;;;;;;;;;;;;;;;;;7366101;19;1565;-66
2023/03/28 08:32:23;;;;;;;;;;;;;;;;;;7366775;19;838;-67
2023/03/28 08:34:51;;;;;;;;;;;;;;;;;;7369358;19;1378;-66
2023/03/28 08:37:23;;;;;;;;;;;;;;;;;;7363199;19;1856;-66
2023/03/28 08:39:53;;;;;;;;;;;;;;;;;;7366040;19;858;-66
2023/03/28 08:42:21;;;;;;;;;;;;;;;;;;7367885;19;708;-66
2023/03/28 08:44:50;;;;;;;;;;;;;;;;;;7366754;19;855;-66
2023/03/28 08:47:19;;;;;;;;;;;;;;;;;;7363308;19;1282;-68
2023/03/28 08:49:47;;;;;;;;;;;;;;;;;;7367126;19;840;-68
2023/03/28 08:52:17;;;;;;;;;;;;;;;;;;7366531;19;809;-67
2023/03/28 08:54:45;;;;;;;;;;;;;;;;;;7368310;19;913;-67
2023/03/28 08:57:13;;;;;;;;;;;;;;;;;;7365691;19;1851;-66
2023/03/28 08:59:42;;;;;;;;;;;;;;;;;;7368370;19;885;-66
2023/03/28 09:02:10;;;;;;;;;;;;;;;;;;7367305;19;2061;-67
2023/03/28 09:04:39;;;;;;;;;;;;;;;;;;7369466;19;1775;-67
2023/03/28 09:07:12;;;;;;;;;;;;;;;;;;7364655;19;1385;-68
2023/03/28 09:09:41;;;;;;;;;;;;;;;;;;7372202;19;1834;-67
2023/03/28 09:12:28;;;;;;;;;;;;;;;;;;7365825;19;1452;-67
2023/03/28 09:14:56;;;;;;;;;;;;;;;;;;7364704;19;793;-66
2023/03/28 09:17:24;;;;;;;;;;;;;;;;;;7362499;19;1845;-66
2023/03/28 09:19:52;;;;;;;;;;;;;;;;;;7365415;19;869;-66
2023/03/28 09:22:40;;;;;;;;;;;;;;;;;;7368722;19;762;-67
2023/03/28 09:25:08;;;;;;;;;;;;;;;;;;7366721;19;1290;-66
2023/03/28 09:27:39;;;;;;;;;;;;;;;;;;7363446;19;786;-67
2023/03/28 09:30:09;;;;;;;;;;;;;;;;;;7366803;19;850;-66
2023/03/28 09:32:37;;;;;;;;;;;;;;;;;;7368244;19;786;-67
2023/03/28 09:35:06;;;;;;;;;;;;;;;;;;7369632;19;1765;-67
2023/03/28 09:37:35;;;;;;;;;;;;;;;;;;7360910;19;1838;-67
2023/03/28 09:40:06;;;;;;;;;;;;;;;;;;7364362;19;755;-66
2023/03/28 09:42:42;;;;;;;;;;;;;;;;;;7365184;19;771;-67
2023/03/28 09:45:24;;;;;;;;;;;;;;;;;;7364223;19;1270;-66
2023/03/28 09:47:55;;;;;;;;;;;;;;;;;;7365151;19;786;-67
2023/03/28 09:50:27;;;;;;;;;;;;;;;;;;7363284;19;781;-67
2023/03/28 09:52:58;;;;;;;;;;;;;;;;;;7364722;19;719;-67
2023/03/28 09:55:26;;;;;;;;;;;;;;;;;;7365428;19;1232;-66
2023/03/28 09:57:55;;;;;;;;;;;;;;;;;;7361048;19;1822;-67
2023/03/28 10:00:25;;;;;;;;;;;;;;;;;;7363920;19;867;-66
2023/03/28 10:03:14;;;;;;;;;;;;;;;;;;7364529;19;1117;-67
2023/03/28 10:05:44;;;;;;;;;;;;;;;;;;7362080;19;1337;-67
2023/03/28 10:08:34;;;;;;;;;;;;;;;;;;7362495;19;1065;-68
2023/03/28 10:11:21;;;;;;;;;;;;;;;;;;7363386;19;786;-67
2023/03/28 10:13:49;;;;;;;;;;;;;;;;;;7362957;19;823;-67
2023/03/28 10:16:18;;;;;;;;;;;;;;;;;;7361353;19;1861;-67
2023/03/28 10:18:58;;;;;;;;;;;;;;;;;;7362303;19;829;-67
2023/03/28 10:21:37;;;;;;;;;;;;;;;;;;7362906;19;867;-67
2023/03/28 10:24:10;;;;;;;;;;;;;;;;;;7363327;19;783;-66
2023/03/28 10:26:39;;;;;;;;;;;;;;;;;;7360319;19;1322;-67
2023/03/28 10:29:07;;;;;;;;;;;;;;;;;;7368151;19;870;-68
2023/03/28 10:31:37;;;;;;;;;;;;;;;;;;7369486;19;765;-67
2023/03/28 10:34:25;;;;;;;;;;;;;;;;;;7369434;19;762;-67
2023/03/28 10:36:59;;;;;;;;;;;;;;;;;;7367062;19;1846;-67
2023/03/28 10:39:38;;;;;;;;;;;;;;;;;;7367821;19;810;-67
2023/03/28 10:42:12;;;;;;;;;;;;;;;;;;7370851;19;754;-67
2023/03/28 10:44:50;;;;;;;;;;;;;;;;;;7369249;19;772;-67
2023/03/28 10:47:18;;;;;;;;;;;;;;;;;;7366893;19;1266;-69
2023/03/28 10:49:53;;;;;;;;;;;;;;;;;;7369133;19;837;-67
2023/03/28 10:52:21;;;;;;;;;;;;;;;;;;7368745;19;778;-67
2023/03/28 10:54:50;;;;;;;;;;;;;;;;;;7368548;19;862;-68
2023/03/28 10:57:29;;;;;;;;;;;;;;;;;;7365798;19;1873;-68
2023/03/28 10:59:58;;;;;;;;;;;;;;;;;;7368543;19;824;-67
2023/03/28 11:02:26;;;;;;;;;;;;;;;;;;7367529;19;807;-67
2023/03/28 11:04:54;;;;;;;;;;;;;;;;;;7368097;19;853;-66
2023/03/28 11:07:24;;;;;;;;;;;;;;;;;;7366146;19;1878;-66
2023/03/28 11:10:03;;;;;;;;;;;;;;;;;;7369054;19;732;-67
2023/03/28 11:12:56;;;;;;;;;;;;;;;;;;7367919;19;787;-67
2023/03/28 11:15:27;;;;;;;;;;;;;;;;;;7367850;19;1332;-66
2023/03/28 11:18:01;;;;;;;;;;;;;;;;;;7365828;19;1837;-66
2023/03/28 11:20:29;;;;;;;;;;;;;;;;;;7372110;19;1846;-67
2023/03/28 11:23:00;;;;;;;;;;;;;;;;;;7370957;19;1671;-67
2023/03/28 11:25:28;;;;;;;;;;;;;;;;;;7366605;19;1243;-66
2023/03/28 11:28:02;;;;;;;;;;;;;;;;;;7368635;19;1607;-66
2023/03/28 11:30:36;;;;;;;;;;;;;;;;;;7368967;19;1335;-66
2023/03/28 11:33:29;;;;;;;;;;;;;;;;;;7367240;19;729;-66
2023/03/28 11:36:02;;;;;;;;;;;;;;;;;;7365634;19;1342;-66
2023/03/28 11:38:30;;;;;;;;;;;;;;;;;;7364432;19;1854;-66
2023/03/28 11:40:59;;;;;;;;;;;;;;;;;;7368382;19;1945;-66
2023/03/28 11:43:47;;;;;;;;;;;;;;;;;;7368121;19;1409;-67
2023/03/28 11:46:15;;;;;;;;;;;;;;;;;;7365860;19;1325;-66
2023/03/28 11:48:43;;;;;;;;;;;;;;;;;;7367570;19;2075;-66
2023/03/28 11:51:17;;;;;;;;;;;;;;;;;;7367226;19;784;-66
2023/03/28 11:53:50;;;;;;;;;;;;;;;;;;7368270;19;800;-66
2023/03/28 11:56:20;;;;;;;;;;;;;;;;;;7365848;19;1286;-66
2023/03/28 11:59:01;;;;;;;;;;;;;;;;;;7365455;19;798;-67
2023/03/28 12:01:30;;;;;;;;;;;;;;;;;;7366783;19;821;-66
2023/03/28 12:03:58;;;;;;;;;;;;;;;;;;7368198;19;806;-66
2023/03/28 12:06:26;;;;;;;;;;;;;;;;;;7366268;19;1333;-66
2023/03/28 12:08:55;;;;;;;;;;;;;;;;;;7367547;19;807;-67
2023/03/28 12:11:23;;;;;;;;;;;;;;;;;;7366847;19;795;-66
2023/03/28 12:14:01;;;;;;;;;;;;;;;;;;7366651;19;1856;-66
2023/03/28 12:16:29;;;;;;;;;;;;;;;;;;7363254;19;1280;-66
2023/03/28 12:19:00;;;;;;;;;;;;;;;;;;7366463;19;863;-66
2023/03/28 12:21:46;;;;;;;;;;;;;;;;;;7367525;19;681;-66
2023/03/28 12:24:22;;;;;;;;;;;;;;;;;;7368621;19;1850;-66
2023/03/28 12:26:59;;;;;;;;;;;;;;;;;;7363042;19;1262;-66
2023/03/28 12:29:27;;;;;;;;;;;;;;;;;;7364823;19;783;-67
2023/03/28 12:31:56;;;;;;;;;;;;;;;;;;7365373;19;803;-66
2023/03/28 12:34:25;;;;;;;;;;;;;;;;;;7367066;19;783;-67
2023/03/28 12:37:13;;;;;;;;;;;;;;;;;;7364982;19;1853;-68
2023/03/28 12:39:42;;;;;;;;;;;;;;;;;;7368289;19;706;-68
2023/03/28 12:42:18;;;;;;;;;;;;;;;;;;7369877;19;1702;-67
2023/03/28 12:44:46;;;;;;;;;;;;;;;;;;7369582;19;794;-66
2023/03/28 12:47:15;;;;;;;;;;;;;;;;;;7364119;19;1330;-66
2023/03/28 12:49:43;;;;;;;;;;;;;;;;;;7365960;19;826;-67
2023/03/28 12:52:14;;;;;;;;;;;;;;;;;;7366920;19;1169;-66
2023/03/28 12:54:42;;;;;;;;;;;;;;;;;;7365477;19;851;-67
2023/03/28 12:57:10;;;;;;;;;;;;;;;;;;7365509;19;1822;-67
2023/03/28 12:59:47;;;;;;;;;;;;;;;;;;7365209;19;774;-67
2023/03/28 13:02:29;;;;;;;;;;;;;;;;;;7366114;19;590;-66
2023/03/28 13:05:01;;;;;;;;;;;;;;;;;;7367317;19;775;-66
2023/03/28 13:07:31;;;;;;;;;;;;;;;;;;7365371;19;831;-67
2023/03/28 13:09:59;;;;;;;;;;;;;;;;;;7366674;19;1856;-67
2023/03/28 13:12:28;;;;;;;;;;;;;;;;;;7365953;19;865;-67
2023/03/28 13:14:56;;;;;;;;;;;;;;;;;;7365844;19;779;-67
2023/03/28 13:17:24;;;;;;;;;;;;;;;;;;7362983;19;1849;-67
2023/03/28 13:19:53;;;;;;;;;;;;;;;;;;7367049;19;727;-67
2023/03/28 13:22:21;;;;;;;;;;;;;;;;;;7366163;19;782;-66
2023/03/28 13:24:49;;;;;;;;;;;;;;;;;;7366050;19;827;-67
2023/03/28 13:27:17;;;;;;;;;;;;;;;;;;7361827;19;1373;-66
2023/03/28 13:29:45;;;;;;;;;;;;;;;;;;7365302;19;830;-66
2023/03/28 13:32:14;;;;;;;;;;;;;;;;;;7369860;19;1736;-66
2023/03/28 13:34:42;;;;;;;;;;;;;;;;;;7363763;19;1511;-67
2023/03/28 13:37:10;;;;;;;;;;;;;;;;;;7360857;19;1865;-66
2023/03/28 13:39:38;;;;;;;;;;;;;;;;;;7366397;19;1808;-68
2023/03/28 13:42:06;;;;;;;;;;;;;;;;;;7365413;19;869;-68
2023/03/28 13:44:35;;;;;;;;;;;;;;;;;;7364911;19;782;-66
2023/03/28 13:47:03;;;;;;;;;;;;;;;;;;7361847;19;1254;-66
2023/03/28 13:49:31;;;;;;;;;;;;;;;;;;7363708;19;782;-66
2023/03/28 13:51:59;;;;;;;;;;;;;;;;;;7363588;19;727;-66
2023/03/28 13:54:27;;;;;;;;;;;;;;;;;;7365184;19;866;-66
2023/03/28 13:56:56;;;;;;;;;;;;;;;;;;7362246;19;1260;-66
2023/03/28 13:59:24;;;;;;;;;;;;;;;;;;7360993;19;1861;-66
2023/03/28 14:01:52;;;;;;;;;;;;;;;;;;7362130;19;774;-66
2023/03/28 14:04:20;;;;;;;;;;;;;;;;;;7366789;19;1764;-67
2023/03/28 14:06:49;;;;;;;;;;;;;;;;;;7361310;19;1206;-67
2023/03/28 14:09:17;;;;;;;;;;;;;;;;;;7362948;19;1774;-67
2023/03/28 14:11:45;;;;;;;;;;;;;;;;;;7365056;19;1804;-67
2023/03/28 14:14:14;;;;;;;;;;;;;;;;;;7366602;19;1851;-67
2023/03/28 14:16:42;;;;;;;;;;;;;;;;;;7360350;19;1345;-68
2023/03/28 14:19:10;;;;;;;;;;;;;;;;;;7360049;19;1885;-68
2023/03/28 14:21:38;;;;;;;;;;;;;;;;;;7364247;19;853;-67
2023/03/28 14:24:06;;;;;;;;;;;;;;;;;;7364229;19;849;-67
2023/03/28 14:26:35;;;;;;;;;;;;;;;;;;7361387;19;1286;-67
2023/03/28 14:29:03;;;;;;;;;;;;;;;;;;7362555;19;990;-67
2023/03/28 14:31:31;;;;;;;;;;;;;;;;;;7361634;19;779;-68
2023/03/28 14:33:59;;;;;;;;;;;;;;;;;;7362280;19;778;-67
2023/03/28 14:36:30;;;;;;;;;;;;;;;;;;7360195;19;1247;-67
2023/03/28 14:38:58;;;;;;;;;;;;;;;;;;7360804;19;2079;-69
2023/03/28 14:41:28;;;;;;;;;;;;;;;;;;7362733;19;921;-67
2023/03/28 14:43:56;;;;;;;;;;;;;;;;;;7362811;19;791;-67
2023/03/28 14:46:25;;;;;;;;;;;;;;;;;;7362270;19;1341;-67
2023/03/28 14:48:53;;;;;;;;;;;;;;;;;;7362100;19;820;-68
2023/03/28 14:51:21;;;;;;;;;;;;;;;;;;7362875;19;825;-67
2023/03/28 14:53:49;;;;;;;;;;;;;;;;;;7361683;19;802;-67
2023/03/28 14:56:18;;;;;;;;;;;;;;;;;;7361227;19;1306;-67
2023/03/28 14:58:46;;;;;;;;;;;;;;;;;;7359142;19;1846;-66
2023/03/28 15:01:14;;;;;;;;;;;;;;;;;;7362812;19;819;-68
2023/03/28 15:03:44;;;;;;;;;;;;;;;;;;7365050;19;1750;-67
2023/03/28 15:06:12;;;;;;;;;;;;;;;;;;7360880;19;1250;-67
2023/03/28 15:08:40;;;;;;;;;;;;;;;;;;7361995;19;1692;-68
2023/03/28 15:11:09;;;;;;;;;;;;;;;;;;7362130;19;776;-68
2023/03/28 15:13:37;;;;;;;;;;;;;;;;;;7365331;19;821;-68
2023/03/28 15:16:06;;;;;;;;;;;;;;;;;;7367845;19;1270;-67
2023/03/28 15:18:35;;;;;;;;;;;;;;;;;;7368336;19;1854;-67
2023/03/28 15:21:03;;;;;;;;;;;;;;;;;;7368852;19;801;-67
2023/03/28 15:23:31;;;;;;;;;;;;;;;;;;7369448;19;829;-67
2023/03/28 15:26:00;;;;;;;;;;;;;;;;;;7367198;19;1315;-67
2023/03/28 15:28:28;;;;;;;;;;;;;;;;;;7368436;19;1785;-67
2023/03/28 15:30:56;;;;;;;;;;;;;;;;;;7367720;19;825;-67
2023/03/28 15:33:24;;;;;;;;;;;;;;;;;;7369120;19;1043;-67
2023/03/28 15:35:54;;;;;;;;;;;;;;;;;;7367609;19;1361;-67
2023/03/28 15:38:22;;;;;;;;;;;;;;;;;;7366046;19;1851;-67
2023/03/28 15:40:51;;;;;;;;;;;;;;;;;;7368019;19;819;-67
2023/03/28 15:43:20;;;;;;;;;;;;;;;;;;7367793;19;809;-67
2023/03/28 15:45:49;;;;;;;;;;;;;;;;;;7365177;19;1244;-67
2023/03/28 15:48:18;;;;;;;;;;;;;;;;;;7366613;19;925;-67
2023/03/28 15:50:46;;;;;;;;;;;;;;;;;;7371343;19;1880;-67
2023/03/28 15:53:15;;;;;;;;;;;;;;;;;;7366091;19;822;-67
2023/03/28 15:55:43;;;;;;;;;;;;;;;;;;7365519;19;1289;-68
2023/03/28 15:58:11;;;;;;;;;;;;;;;;;;7366329;19;1841;-66
2023/03/28 16:00:39;;;;;;;;;;;;;;;;;;7369185;19;1748;-66
2023/03/28 16:03:07;;;;;;;;;;;;;;;;;;7367619;19;951;-66
2023/03/28 16:05:36;;;;;;;;;;;;;;;;;;7367228;19;1306;-66
2023/03/28 16:08:04;;;;;;;;;;;;;;;;;;7366571;19;1875;-66
2023/03/28 16:10:32;;;;;;;;;;;;;;;;;;7367995;19;1576;-66
2023/03/28 16:13:18;;;;;;;;;;;;;;;;;;7370061;19;1789;-67
2023/03/28 16:16:07;;;;;;;;;;;;;;;;;;7366181;19;1651;-67
2023/03/28 16:18:51;;;;;;;;;;;;;;;;;;7363952;19;1850;-67
2023/03/28 16:21:19;;;;;;;;;;;;;;;;;;7368099;19;1783;-67
2023/03/28 16:23:47;;;;;;;;;;;;;;;;;;7367453;19;870;-66
2023/03/28 16:26:15;;;;;;;;;;;;;;;;;;7362917;19;1345;-67
2023/03/28 16:28:43;;;;;;;;;;;;;;;;;;7368266;19;747;-67
2023/03/28 16:31:11;;;;;;;;;;;;;;;;;;7370519;19;1721;-67
2023/03/28 16:33:40;;;;;;;;;;;;;;;;;;7367594;19;837;-66
2023/03/28 16:36:08;;;;;;;;;;;;;;;;;;7366030;19;1325;-66
2023/03/28 16:38:36;;;;;;;;;;;;;;;;;;7368590;19;1814;-65
2023/03/28 16:41:04;;;;;;;;;;;;;;;;;;7372058;19;887;-67
2023/03/28 16:43:32;;;;;;;;;;;;;;;;;;7370616;19;849;-66
2023/03/28 16:46:01;;;;;;;;;;;;;;;;;;7369681;19;1344;-66
2023/03/28 16:48:30;;;;;;;;;;;;;;;;;;7374473;19;1917;-68
2023/03/28 16:51:04;;;;;;;;;;;;;;;;;;7369728;19;831;-66
2023/03/28 16:53:32;;;;;;;;;;;;;;;;;;7370605;19;723;-66
2023/03/28 16:56:00;;;;;;;;;;;;;;;;;;7368510;19;1321;-66
2023/03/28 16:58:28;;;;;;;;;;;;;;;;;;7372588;19;1825;-66
2023/03/28 17:00:57;;;;;;;;;;;;;;;;;;7370856;19;959;-66
2023/03/28 17:03:25;;;;;;;;;;;;;;;;;;7371161;19;1223;-66
2023/03/28 17:05:53;;;;;;;;;;;;;;;;;;7373312;19;1852;-66
2023/03/28 17:08:21;;;;;;;;;;;;;;;;;;7376769;19;1752;-66
2023/03/28 17:10:50;;;;;;;;;;;;;;;;;;7371284;19;2042;-66
2023/03/28 17:13:19;;;;;;;;;;;;;;;;;;7368556;19;819;-67
2023/03/28 17:15:47;;;;;;;;;;;;;;;;;;7366430;19;1364;-67
2023/03/28 17:18:15;;;;;;;;;;;;;;;;;;7369626;19;1994;-67
2023/03/28 17:20:43;;;;;;;;;;;;;;;;;;7368029;19;826;-66
2023/03/28 17:23:12;;;;;;;;;;;;;;;;;;7369320;19;1605;-66
2023/03/28 17:25:40;;;;;;;;;;;;;;;;;;7365228;19;1266;-65
2023/03/28 17:28:08;;;;;;;;;;;;;;;;;;7368676;19;1791;-65
2023/03/28 17:30:36;;;;;;;;;;;;;;;;;;7370022;19;833;-66
2023/03/28 17:33:04;;;;;;;;;;;;;;;;;;7370613;19;886;-65
2023/03/28 17:35:33;;;;;;;;;;;;;;;;;;7369769;19;1298;-66
2023/03/28 17:38:01;;;;;;;;;;;;;;;;;;7369413;19;1838;-65